CL35 weather

Warner Springs Gliderport Airport
Warner Springs, California, United States

Public forecast

Using degrees Fahrenheit for public forecast. Weather courtesy of forecast.io.

METAR (pilot weather report)

Closest report is Ramona Airport, 19.0 nm (35.3 km) SW. Retrieved 2019/07/21 04:53 UTC (1 hour ago):

KRNM 210453Z AUTO 27004KT 10SM CLR 17/13 A2993 RMK AO2 SLP122 T01670128

TAF (pilot weather forecast)

Forecast is more than 12 hours old.

Closest forecast is Mc Clellan-Palomar Airport, 31.8 nm (58.9 km) WSW. Retrieved 2019/07/20 00:34 UTC (1 day ago):

TAF KCRQ 202332Z 2100/2124 25008KT P6SM FEW019 FM210500 VRB04KT 5SM HZ OVC009 FM211600 26008KT P6SM FEW015